createdAt,value
2023-03-10T00:02:11.165Z,94495.63
2023-03-10T00:04:43.940Z,94494.06
2023-03-10T00:07:16.814Z,94492.91
2023-03-10T00:09:49.516Z,94477.63
2023-03-10T00:12:22.900Z,94475.69
2023-03-10T00:14:56.417Z,94482.94
2023-03-10T00:17:31.020Z,94471.06
2023-03-10T00:20:08.138Z,94458.84
2023-03-10T00:22:41.933Z,94460.00
2023-03-10T00:25:16.366Z,94467.25
2023-03-10T00:27:52.605Z,94460.41
2023-03-10T00:30:25.308Z,94466.91
2023-03-10T00:32:59.444Z,94481.03
2023-03-10T00:35:32.155Z,94487.19
2023-03-10T00:38:04.929Z,94478.47
2023-03-10T00:40:37.612Z,94473.50
2023-03-10T00:43:10.362Z,94473.53
2023-03-10T00:45:43.020Z,94476.59
2023-03-10T00:48:17.229Z,94476.59
2023-03-10T00:50:49.945Z,94477.03
2023-03-10T00:53:22.837Z,94478.91
2023-03-10T00:55:59.165Z,94477.41
2023-03-10T00:58:33.129Z,94479.69
2023-03-10T01:01:06.684Z,94474.00
2023-03-10T01:03:40.812Z,94464.47
2023-03-10T01:06:14.073Z,94469.47
2023-03-10T01:08:46.789Z,94472.19
2023-03-10T01:11:20.777Z,94477.94
2023-03-10T01:13:54.401Z,94471.84
2023-03-10T01:16:27.551Z,94473.81
2023-03-10T01:19:02.484Z,94474.63
2023-03-10T01:21:36.196Z,94477.69
2023-03-10T01:24:09.248Z,94482.34
2023-03-10T01:26:42.042Z,94488.50
2023-03-10T01:29:15.016Z,94482.84
2023-03-10T01:31:48.476Z,94477.53
2023-03-10T01:34:22.564Z,94481.78
2023-03-10T01:36:55.263Z,94494.81
2023-03-10T01:39:28.213Z,94472.31
2023-03-10T01:42:01.086Z,94468.88
2023-03-10T01:44:34.023Z,94467.81
2023-03-10T01:47:06.963Z,94459.78
2023-03-10T01:49:42.935Z,94477.03
2023-03-10T01:52:17.675Z,94477.44
2023-03-10T01:54:52.620Z,94483.56
2023-03-10T01:57:26.502Z,94469.06
2023-03-10T02:00:00.140Z,94470.22
2023-03-10T02:02:34.682Z,94477.09
2023-03-10T02:05:09.391Z,94477.53
2023-03-10T02:07:42.240Z,94475.97
2023-03-10T02:10:15.520Z,94469.09
2023-03-10T02:12:48.310Z,94476.78
2023-03-10T02:15:21.060Z,94470.69
2023-03-10T02:17:54.461Z,94475.28
2023-03-10T02:20:34.351Z,94477.94
2023-03-10T02:23:07.335Z,94475.28
2023-03-10T02:25:43.910Z,94475.28
2023-03-10T02:28:18.715Z,94489.44
2023-03-10T02:30:53.967Z,94485.22
2023-03-10T02:33:28.196Z,94502.09
2023-03-10T02:36:04.208Z,94505.53
2023-03-10T02:38:36.965Z,94504.75
2023-03-10T02:41:15.155Z,94496.72
2023-03-10T02:43:49.961Z,94490.59
2023-03-10T02:46:23.825Z,94495.19
2023-03-10T02:48:59.881Z,94484.47
2023-03-10T02:51:34.517Z,94484.09
2023-03-10T02:54:08.198Z,94486.72
2023-03-10T02:56:42.692Z,94487.09
2023-03-10T02:59:16.750Z,94516.53
2023-03-10T03:01:49.590Z,94498.94
2023-03-10T03:04:22.290Z,94497.78
2023-03-10T03:06:54.965Z,94500.44
2023-03-10T03:09:27.639Z,94499.66
2023-03-10T03:12:01.415Z,94511.53
2023-03-10T03:14:35.652Z,94480.13
2023-03-10T03:17:08.359Z,94471.72
2023-03-10T03:19:41.113Z,94482.03
2023-03-10T03:22:13.790Z,94479.38
2023-03-10T03:24:46.557Z,94479.75
2023-03-10T03:27:19.306Z,94479.72
2023-03-10T03:29:53.385Z,94475.88
2023-03-10T03:32:26.384Z,94470.16
2023-03-10T03:34:59.934Z,94474.75
2023-03-10T03:37:32.641Z,94467.47
2023-03-10T03:40:12.867Z,94463.25
2023-03-10T03:42:46.793Z,94456.75
2023-03-10T03:45:22.646Z,94440.31
2023-03-10T03:47:55.367Z,94445.28
2023-03-10T03:50:28.705Z,94441.06
2023-03-10T03:53:01.422Z,94447.19
2023-03-10T03:55:34.113Z,94441.44
2023-03-10T03:58:06.843Z,94439.53
2023-03-10T04:00:40.892Z,94433.78
2023-03-10T04:03:13.641Z,94423.44
2023-03-10T04:05:46.581Z,94417.31
2023-03-10T04:08:19.297Z,94411.94
2023-03-10T04:10:52.293Z,94393.22
2023-03-10T04:13:25.204Z,94397.78
2023-03-10T04:16:00.093Z,94376.00
2023-03-10T04:18:32.818Z,94368.72
2023-03-10T04:21:05.660Z,94369.50
2023-03-10T04:23:40.279Z,94352.66
2023-03-10T04:26:13.049Z,94356.84
2023-03-10T04:28:45.730Z,94338.13
2023-03-10T04:31:20.660Z,94334.69
2023-03-10T04:33:53.845Z,94325.88
2023-03-10T04:36:26.570Z,94326.25
2023-03-10T04:38:59.410Z,94325.50
2023-03-10T04:41:32.116Z,94328.53
2023-03-10T04:44:05.300Z,94323.97
2023-03-10T04:46:39.446Z,94317.84
2023-03-10T04:49:12.191Z,94305.22
2023-03-10T04:51:44.819Z,94296.44
2023-03-10T04:54:17.585Z,94288.81
2023-03-10T04:56:50.303Z,94284.22
2023-03-10T04:59:23.146Z,94283.81
2023-03-10T05:01:57.299Z,94282.31
2023-03-10T05:04:30.137Z,94267.03
2023-03-10T05:07:02.985Z,94260.94
2023-03-10T05:09:36.328Z,94254.81
2023-03-10T05:12:09.668Z,94246.78
2023-03-10T05:14:42.475Z,94242.94
2023-03-10T05:17:16.582Z,94232.63
2023-03-10T05:19:49.223Z,94236.81
2023-03-10T05:22:22.203Z,94217.31
2023-03-10T05:24:54.983Z,94210.47
2023-03-10T05:27:28.108Z,94204.38
2023-03-10T05:30:01.022Z,94191.38
2023-03-10T05:32:36.520Z,94183.34
2023-03-10T05:35:09.649Z,94185.25
2023-03-10T05:37:43.639Z,94194.41
2023-03-10T05:40:19.872Z,94193.66
2023-03-10T05:42:53.529Z,94182.94
2023-03-10T05:45:26.287Z,94170.34
2023-03-10T05:48:00.346Z,94168.81
2023-03-10T05:50:33.046Z,94173.03
2023-03-10T05:53:05.947Z,94181.03
2023-03-10T05:55:38.667Z,94177.97
2023-03-10T05:58:11.682Z,94175.69
2023-03-10T06:00:44.454Z,94173.78
2023-03-10T06:03:18.757Z,94176.44
2023-03-10T06:05:51.510Z,94179.88
2023-03-10T06:08:24.504Z,94180.28
2023-03-10T06:10:57.865Z,94170.75
2023-03-10T06:13:31.258Z,94168.06
2023-03-10T06:16:05.514Z,94173.06
2023-03-10T06:18:40.251Z,94162.38
2023-03-10T06:21:14.259Z,94166.97
2023-03-10T06:23:46.907Z,94180.72
2023-03-10T06:26:19.980Z,94205.19
2023-03-10T06:28:52.743Z,94230.03
2023-03-10T06:31:25.619Z,94238.84
2023-03-10T06:34:01.488Z,94235.78
2023-03-10T06:36:37.408Z,94256.44
2023-03-10T06:39:10.319Z,94265.97
2023-03-10T06:41:43.035Z,94265.19
2023-03-10T06:44:18.871Z,94268.25
2023-03-10T06:46:51.732Z,94268.63
2023-03-10T06:49:29.255Z,94272.06
2023-03-10T06:52:02.121Z,94268.22
2023-03-10T06:54:34.853Z,94261.72
2023-03-10T06:57:07.584Z,94252.13
2023-03-10T06:59:40.216Z,94264.38
2023-03-10T07:02:13.698Z,94282.75
2023-03-10T07:04:48.141Z,94288.13
2023-03-10T07:07:21.070Z,94304.97
2023-03-10T07:09:53.757Z,94318.34
2023-03-10T07:12:26.580Z,94326.00
2023-03-10T07:14:59.337Z,94347.78
2023-03-10T07:17:32.072Z,94355.44
2023-03-10T07:20:07.847Z,94353.91
2023-03-10T07:22:41.036Z,94351.59
2023-03-10T07:25:13.704Z,94359.59
2023-03-10T07:27:46.449Z,94350.78
2023-03-10T07:30:19.297Z,94338.53
2023-03-10T07:32:53.224Z,94340.41
2023-03-10T07:35:27.387Z,94346.13
2023-03-10T07:38:00.182Z,94344.56
2023-03-10T07:40:33.355Z,94359.06
2023-03-10T07:43:06.330Z,94367.00
2023-03-10T07:45:39.486Z,94378.88
2023-03-10T07:48:12.170Z,94378.84
2023-03-10T07:50:46.169Z,94379.97
2023-03-10T07:53:18.928Z,94408.97
2023-03-10T07:55:51.716Z,94412.78
2023-03-10T07:58:24.503Z,94417.38
2023-03-10T08:00:57.875Z,94419.63
2023-03-10T08:03:30.901Z,94426.13
2023-03-10T08:06:05.858Z,94424.94
2023-03-10T08:08:39.362Z,94427.59
2023-03-10T08:11:12.363Z,94447.03
2023-03-10T08:13:47.749Z,94455.78
2023-03-10T08:16:21.855Z,94479.06
2023-03-10T08:18:54.956Z,94476.75
2023-03-10T08:21:29.107Z,94461.47
2023-03-10T08:24:01.946Z,94425.19
2023-03-10T08:26:34.688Z,94437.38
2023-03-10T08:29:07.515Z,94440.78
2023-03-10T08:31:40.668Z,94452.22
2023-03-10T08:34:14.345Z,94461.72
2023-03-10T08:36:48.493Z,94462.44
2023-03-10T08:39:21.277Z,94462.09
2023-03-10T08:41:54.153Z,94466.28
2023-03-10T08:44:27.312Z,94458.69
2023-03-10T08:47:00.334Z,94450.31
2023-03-10T08:49:33.212Z,94446.56
2023-03-10T08:52:08.038Z,94453.84
2023-03-10T08:54:40.823Z,94457.75
2023-03-10T08:57:13.490Z,94462.41
2023-03-10T08:59:46.257Z,94467.41
2023-03-10T09:02:22.091Z,94468.63
2023-03-10T09:04:55.174Z,94466.00
2023-03-10T09:07:29.350Z,94460.34
2023-03-10T09:10:03.593Z,94447.75
2023-03-10T09:12:39.123Z,94446.66
2023-03-10T09:15:12.522Z,94451.25
2023-03-10T09:17:45.255Z,94441.72
2023-03-10T09:20:21.329Z,94438.69
2023-03-10T09:22:56.554Z,94443.69
2023-03-10T09:25:29.475Z,94444.09
2023-03-10T09:28:02.262Z,94424.66
2023-03-10T09:30:37.412Z,94410.53
2023-03-10T09:33:14.802Z,94407.84
2023-03-10T09:36:04.921Z,94401.00
2023-03-10T09:38:42.067Z,94395.25
2023-03-10T09:41:24.009Z,94407.88
2023-03-10T09:44:00.744Z,94404.44
2023-03-10T09:46:40.160Z,94418.94
2023-03-10T09:49:17.043Z,94409.38
2023-03-10T09:51:51.415Z,94416.66
2023-03-10T09:54:39.546Z,94423.13
2023-03-10T09:57:16.760Z,94415.09
2023-03-10T09:59:51.081Z,94410.88
2023-03-10T10:02:24.908Z,94412.78
2023-03-10T10:05:03.674Z,94407.78
2023-03-10T10:07:42.588Z,94416.22
2023-03-10T10:10:18.580Z,94415.84
2023-03-10T10:12:54.724Z,94416.59
2023-03-10T10:15:29.011Z,94418.53
2023-03-10T10:18:18.010Z,94413.16
2023-03-10T10:20:59.114Z,94410.84
2023-03-10T10:23:38.867Z,94414.69
2023-03-10T10:26:13.954Z,94416.59
2023-03-10T10:28:50.740Z,94412.38
2023-03-10T10:31:24.521Z,94410.47
2023-03-10T10:33:58.836Z,94402.03
2023-03-10T10:36:32.672Z,94411.25
2023-03-10T10:39:20.408Z,94423.47
2023-03-10T10:41:54.953Z,94426.16
2023-03-10T10:44:27.665Z,94420.75
2023-03-10T10:47:00.349Z,94422.25
2023-03-10T10:49:34.113Z,94439.50
2023-03-10T10:52:19.380Z,94436.38
2023-03-10T10:54:56.335Z,94439.03
2023-03-10T10:57:32.497Z,94436.34
2023-03-10T11:00:18.605Z,94442.81
2023-03-10T11:02:51.374Z,94450.44
2023-03-10T11:05:25.305Z,94454.63
2023-03-10T11:08:00.185Z,94449.19
2023-03-10T11:10:34.501Z,94471.78
2023-03-10T11:13:15.121Z,94458.69
2023-03-10T11:15:53.049Z,94462.50
2023-03-10T11:18:28.961Z,94455.56
2023-03-10T11:21:05.265Z,94455.56
2023-03-10T11:23:42.084Z,94455.88
2023-03-10T11:26:19.760Z,94465.47
2023-03-10T11:28:54.732Z,94476.16
2023-03-10T11:31:33.723Z,94482.66
2023-03-10T11:34:15.516Z,94478.41
2023-03-10T11:36:56.413Z,94489.09
2023-03-10T11:39:36.208Z,94477.13
2023-03-10T11:42:12.390Z,94478.22
2023-03-10T11:44:52.410Z,94497.81
2023-03-10T11:47:29.821Z,94490.91
2023-03-10T11:50:08.585Z,94493.59
2023-03-10T11:52:41.608Z,94494.81
2023-03-10T11:55:18.794Z,94479.88
2023-03-10T11:57:54.594Z,94488.41
2023-03-10T12:00:30.665Z,94493.44
2023-03-10T12:03:08.265Z,94499.28
2023-03-10T12:05:45.123Z,94492.78
2023-03-10T12:08:19.662Z,94503.97
2023-03-10T12:10:53.946Z,94499.03
2023-03-10T12:13:28.164Z,94488.72
2023-03-10T12:16:03.044Z,94493.38
2023-03-10T12:18:35.808Z,94503.78
2023-03-10T12:21:15.991Z,94489.63
2023-03-10T12:23:49.234Z,94508.06
2023-03-10T12:26:40.908Z,94506.13
2023-03-10T12:29:32.018Z,94507.34
2023-03-10T12:32:07.102Z,94508.91
2023-03-10T12:34:39.780Z,94505.88
2023-03-10T12:37:13.629Z,94506.25
2023-03-10T12:39:46.501Z,94484.47
2023-03-10T12:42:30.115Z,94503.59
2023-03-10T12:45:07.956Z,94512.41
2023-03-10T12:47:50.249Z,94510.13
2023-03-10T12:50:30.461Z,94512.03
2023-03-10T12:53:13.166Z,94498.63
2023-03-10T12:56:05.911Z,94500.53
2023-03-10T12:58:40.067Z,94506.66
2023-03-10T13:01:15.028Z,94508.56
2023-03-10T13:03:51.965Z,94511.25
2023-03-10T13:06:29.386Z,94493.25
2023-03-10T13:09:10.772Z,94512.75
2023-03-10T13:11:45.336Z,94515.03
2023-03-10T13:14:19.551Z,94524.22
2023-03-10T13:16:55.755Z,94510.44
2023-03-10T13:19:31.487Z,94507.75
2023-03-10T13:22:05.631Z,94506.22
2023-03-10T13:24:38.639Z,94510.06
2023-03-10T13:27:14.262Z,94532.63
2023-03-10T13:29:55.838Z,94519.63
2023-03-10T13:32:29.189Z,94502.38
2023-03-10T13:35:15.885Z,94504.31
2023-03-10T13:38:03.875Z,94508.91
2023-03-10T13:40:37.545Z,94518.91
2023-03-10T13:43:23.832Z,94515.09
2023-03-10T13:45:57.023Z,94530.41
2023-03-10T13:48:31.047Z,94556.06
2023-03-10T13:51:18.607Z,94509.72
2023-03-10T13:53:53.545Z,94538.06
2023-03-10T13:56:27.458Z,94546.88
2023-03-10T13:59:02.163Z,94555.69
2023-03-10T14:01:37.285Z,94558.38
2023-03-10T14:04:15.704Z,94544.19
2023-03-10T14:07:07.365Z,94565.66
2023-03-10T14:09:40.107Z,94580.97
2023-03-10T14:12:13.561Z,94584.03
2023-03-10T14:14:46.368Z,94579.81
2023-03-10T14:17:32.589Z,94583.66
2023-03-10T14:20:08.456Z,94583.66
2023-03-10T14:22:43.568Z,94590.16
2023-03-10T14:25:18.027Z,94589.38
2023-03-10T14:27:55.064Z,94583.25
2023-03-10T14:30:29.350Z,94593.22
2023-03-10T14:33:02.939Z,94593.97
2023-03-10T14:35:35.642Z,94605.47
2023-03-10T14:38:10.439Z,94616.22
2023-03-10T14:40:44.354Z,94612.75
2023-03-10T14:43:19.834Z,94624.25
2023-03-10T14:45:53.958Z,94632.63
2023-03-10T14:48:28.143Z,94642.97
2023-03-10T14:51:00.936Z,94652.91
2023-03-10T14:53:35.400Z,94671.22
2023-03-10T14:56:12.664Z,94702.50
2023-03-10T14:58:47.460Z,94704.41
2023-03-10T15:01:21.644Z,94678.66
2023-03-10T15:03:54.422Z,94707.63
2023-03-10T15:06:27.164Z,94696.03
2023-03-10T15:09:01.287Z,94697.84
2023-03-10T15:11:37.320Z,94710.75
2023-03-10T15:14:13.019Z,94715.59
2023-03-10T15:16:45.914Z,94710.16
2023-03-10T15:19:20.951Z,94687.94
2023-03-10T15:21:54.047Z,94703.88
2023-03-10T15:24:28.217Z,94700.78
2023-03-10T15:27:01.264Z,94716.34
2023-03-10T15:29:34.047Z,94702.97
2023-03-10T15:32:07.066Z,94713.25
2023-03-10T15:34:39.763Z,94717.06
2023-03-10T15:37:12.776Z,94739.94
2023-03-10T15:39:46.855Z,94731.13
2023-03-10T15:42:19.732Z,94752.84
2023-03-10T15:44:52.417Z,94722.69
2023-03-10T15:47:25.290Z,94722.69
2023-03-10T15:49:58.101Z,94718.13
2023-03-10T15:52:30.916Z,94723.47
2023-03-10T15:55:05.557Z,94745.25
2023-03-10T15:57:38.359Z,94740.63
2023-03-10T16:00:12.305Z,94773.81
2023-03-10T16:02:45.355Z,94732.94
2023-03-10T16:05:19.058Z,94737.47
2023-03-10T16:07:52.250Z,94741.63
2023-03-10T16:10:26.414Z,94743.91
2023-03-10T16:12:59.819Z,94775.16
2023-03-10T16:15:32.693Z,94761.00
2023-03-10T16:18:05.474Z,94774.72
2023-03-10T16:20:38.272Z,94772.03
2023-03-10T16:23:11.239Z,94743.00
2023-03-10T16:25:45.332Z,94733.47
2023-03-10T16:28:18.059Z,94741.09
2023-03-10T16:30:50.895Z,94748.75
2023-03-10T16:33:23.706Z,94754.88
2023-03-10T16:35:58.618Z,94749.53
2023-03-10T16:38:31.373Z,94756.00
2023-03-10T16:41:05.507Z,94751.03
2023-03-10T16:43:38.244Z,94755.94
2023-03-10T16:46:11.937Z,94750.19
2023-03-10T16:48:45.881Z,94748.28
2023-03-10T16:51:20.327Z,94753.19
2023-03-10T16:53:53.654Z,94753.91
2023-03-10T16:56:29.032Z,94753.53
2023-03-10T16:59:01.773Z,94747.06
2023-03-10T17:01:34.841Z,94746.63
2023-03-10T17:04:07.986Z,94749.31
2023-03-10T17:06:40.843Z,94767.22
2023-03-10T17:09:14.050Z,94771.84
2023-03-10T17:11:50.039Z,94797.06
2023-03-10T17:14:22.851Z,94777.19
2023-03-10T17:16:55.822Z,94771.09
2023-03-10T17:19:30.461Z,94793.59
2023-03-10T17:22:03.208Z,94804.22
2023-03-10T17:24:36.240Z,94824.75
2023-03-10T17:27:10.319Z,94828.50
2023-03-10T17:29:43.057Z,94807.81
2023-03-10T17:32:16.080Z,94818.38
2023-03-10T17:34:52.334Z,94835.03
2023-03-10T17:37:25.088Z,94794.13
2023-03-10T17:39:57.763Z,94802.38
2023-03-10T17:42:32.718Z,94790.06
2023-03-10T17:45:06.877Z,94809.06
2023-03-10T17:47:39.865Z,94797.50
2023-03-10T17:50:12.931Z,94787.13
2023-03-10T17:52:48.544Z,94790.09
2023-03-10T17:55:21.322Z,94772.13
2023-03-10T17:57:55.413Z,94790.75
2023-03-10T18:00:28.146Z,94802.84
2023-03-10T18:03:01.088Z,94807.00
2023-03-10T18:05:33.863Z,94821.44
2023-03-10T18:08:06.552Z,94813.81
2023-03-10T18:10:40.602Z,94809.25
2023-03-10T18:13:14.938Z,94811.50
2023-03-10T18:15:50.862Z,94826.41
2023-03-10T18:18:24.077Z,94810.75
2023-03-10T18:20:56.798Z,94781.41
2023-03-10T18:23:29.528Z,94817.63
2023-03-10T18:26:02.312Z,94816.06
2023-03-10T18:28:36.634Z,94793.19
2023-03-10T18:31:09.962Z,94815.31
2023-03-10T18:33:43.588Z,94826.41
2023-03-10T18:36:17.216Z,94837.81
2023-03-10T18:38:50.109Z,94864.13
2023-03-10T18:41:23.693Z,94866.09
2023-03-10T18:43:58.075Z,94869.53
2023-03-10T18:46:30.938Z,94870.75
2023-03-10T18:49:03.733Z,94881.44
2023-03-10T18:51:36.489Z,94892.91
2023-03-10T18:54:09.205Z,94891.38
2023-03-10T18:56:42.114Z,94893.25
2023-03-10T18:59:16.221Z,94893.22
2023-03-10T19:01:49.635Z,94893.53
2023-03-10T19:04:22.331Z,94920.56
2023-03-10T19:06:55.065Z,94909.81
2023-03-10T19:09:27.833Z,94905.19
2023-03-10T19:12:00.550Z,94892.22
2023-03-10T19:14:34.645Z,94931.00
2023-03-10T19:17:07.472Z,94916.91
2023-03-10T19:19:40.486Z,94932.50
2023-03-10T19:22:13.554Z,94916.50
2023-03-10T19:24:46.240Z,94918.75
2023-03-10T19:27:18.914Z,94939.72
2023-03-10T19:29:53.745Z,94953.06
2023-03-10T19:32:27.029Z,95010.16
2023-03-10T19:34:59.877Z,95015.41
2023-03-10T19:37:32.664Z,95048.13
2023-03-10T19:40:09.184Z,94994.72
2023-03-10T19:42:43.039Z,95004.47
2023-03-10T19:45:18.133Z,94997.84
2023-03-10T19:47:52.419Z,95012.50
2023-03-10T19:50:25.528Z,95013.09
2023-03-10T19:53:00.969Z,95031.50
2023-03-10T19:55:33.777Z,95022.94
2023-03-10T19:58:06.565Z,95011.75
2023-03-10T20:00:40.646Z,95016.13
2023-03-10T20:03:14.117Z,95042.69
2023-03-10T20:05:47.770Z,95031.50
2023-03-10T20:08:20.514Z,95032.22
2023-03-10T20:10:53.632Z,95034.78
2023-03-10T20:13:26.716Z,95030.91
2023-03-10T20:16:00.882Z,95031.25
2023-03-10T20:18:33.683Z,95059.69
2023-03-10T20:21:06.866Z,95057.78
2023-03-10T20:23:40.434Z,95055.03
2023-03-10T20:26:13.415Z,95078.56
2023-03-10T20:28:46.864Z,95085.41
2023-03-10T20:31:22.097Z,95085.78
2023-03-10T20:33:55.494Z,95105.94
2023-03-10T20:36:28.275Z,95090.34
2023-03-10T20:39:05.036Z,95103.53
2023-03-10T20:41:37.773Z,95101.22
2023-03-10T20:44:14.630Z,95118.66
2023-03-10T20:46:48.749Z,95119.66
2023-03-10T20:49:21.596Z,95128.31
2023-03-10T20:51:54.336Z,95128.56
2023-03-10T20:54:27.510Z,95123.91
2023-03-10T20:57:00.252Z,95123.03
2023-03-10T20:59:33.157Z,95126.38
2023-03-10T21:02:07.718Z,95128.59
2023-03-10T21:04:40.505Z,95139.59
2023-03-10T21:07:13.314Z,95149.78
2023-03-10T21:09:46.570Z,95161.09
2023-03-10T21:12:21.264Z,95132.59
2023-03-10T21:14:54.521Z,95121.53
2023-03-10T21:17:31.808Z,95130.19
2023-03-10T21:20:06.140Z,95152.59
2023-03-10T21:22:40.113Z,95178.75
2023-03-10T21:25:14.482Z,95186.28
2023-03-10T21:27:47.887Z,95187.75
2023-03-10T21:30:21.646Z,95171.78
2023-03-10T21:32:56.219Z,95171.78
2023-03-10T21:35:30.579Z,95171.41
2023-03-10T21:38:03.374Z,95182.41
2023-03-10T21:40:36.272Z,95196.91
2023-03-10T21:43:09.167Z,95204.13
2023-03-10T21:45:41.941Z,95221.31
2023-03-10T21:48:16.025Z,95238.03
2023-03-10T21:50:48.966Z,95244.59
2023-03-10T21:53:21.726Z,95260.22
2023-03-10T21:55:54.919Z,95251.88
2023-03-10T21:58:27.600Z,95227.28
2023-03-10T22:01:00.419Z,95237.25
2023-03-10T22:03:35.343Z,95237.69
2023-03-10T22:06:08.337Z,95248.31
2023-03-10T22:08:41.159Z,95235.47
2023-03-10T22:11:14.075Z,95221.50
2023-03-10T22:13:46.996Z,95219.28
2023-03-10T22:16:19.906Z,95237.56
2023-03-10T22:18:54.014Z,95252.09
2023-03-10T22:21:26.819Z,95259.72
2023-03-10T22:23:59.996Z,95261.63
2023-03-10T22:26:32.764Z,95249.22
2023-03-10T22:29:05.564Z,95247.28
2023-03-10T22:31:38.371Z,95231.31
2023-03-10T22:34:12.726Z,95251.88
2023-03-10T22:36:45.459Z,95249.63
2023-03-10T22:39:18.531Z,95234.75
2023-03-10T22:41:51.401Z,95224.56
2023-03-10T22:44:24.112Z,95212.81
2023-03-10T22:46:57.093Z,95213.91
2023-03-10T22:49:31.341Z,95214.69
2023-03-10T22:52:07.100Z,95225.00
2023-03-10T22:54:39.848Z,95242.88
2023-03-10T22:57:15.257Z,95250.50
2023-03-10T22:59:48.053Z,95247.84
2023-03-10T23:02:21.221Z,95231.88
2023-03-10T23:04:55.354Z,95229.56
2023-03-10T23:07:28.046Z,95230.34
2023-03-10T23:10:00.933Z,95233.78
2023-03-10T23:12:34.361Z,95239.41
2023-03-10T23:15:15.382Z,95236.75
2023-03-10T23:17:55.695Z,95237.88
2023-03-10T23:20:31.466Z,95244.31
2023-03-10T23:23:05.007Z,95237.88
2023-03-10T23:25:38.808Z,95237.88
2023-03-10T23:28:12.156Z,95230.22
2023-03-10T23:30:45.839Z,95230.22
2023-03-10T23:33:19.532Z,95243.88
2023-03-10T23:35:54.474Z,95239.66
2023-03-10T23:38:28.134Z,95227.13
2023-03-10T23:41:00.946Z,95241.88
2023-03-10T23:43:34.450Z,95254.41
2023-03-10T23:46:08.158Z,95237.22
2023-03-10T23:48:41.011Z,95232.22
2023-03-10T23:51:15.924Z,95237.91
2023-03-10T23:53:48.690Z,95231.03
2023-03-10T23:56:21.373Z,95240.13
2023-03-10T23:58:54.106Z,95216.19
